sensor_id;sensor_type;location;lat;lon;timestamp;P1;durP1;ratioP1;P2;durP2;ratioP2
1677;SDS011;6034;46.864;15.216;2024-02-21T06:02:35;3.30;;;0.95;;
1677;SDS011;6034;46.864;15.216;2024-02-21T06:05:02;2.53;;;0.80;;
1677;SDS011;6034;46.864;15.216;2024-02-21T06:07:32;3.75;;;1.13;;
1677;SDS011;6034;46.864;15.216;2024-02-21T06:10:00;1.85;;;0.70;;
1677;SDS011;6034;46.864;15.216;2024-02-21T06:12:27;3.65;;;1.08;;
1677;SDS011;6034;46.864;15.216;2024-02-21T06:14:55;3.10;;;1.25;;
1677;SDS011;6034;46.864;15.216;2024-02-21T06:17:22;8.15;;;2.53;;
1677;SDS011;6034;46.864;15.216;2024-02-21T06:19:51;18.05;;;12.10;;
1677;SDS011;6034;46.864;15.216;2024-02-21T06:22:19;14.32;;;8.80;;
1677;SDS011;6034;46.864;15.216;2024-02-21T06:24:46;13.45;;;10.13;;
1677;SDS011;6034;46.864;15.216;2024-02-21T06:27:13;4.30;;;3.90;;
1677;SDS011;6034;46.864;15.216;2024-02-21T06:29:41;6.65;;;4.18;;
1677;SDS011;6034;46.864;15.216;2024-02-21T06:32:09;3.60;;;2.20;;
1677;SDS011;6034;46.864;15.216;2024-02-21T06:34:36;4.60;;;2.72;;
1677;SDS011;6034;46.864;15.216;2024-02-21T06:37:05;4.78;;;1.88;;
1677;SDS011;6034;46.864;15.216;2024-02-21T06:39:32;3.22;;;1.70;;
1677;SDS011;6034;46.864;15.216;2024-02-21T06:42:01;3.95;;;2.45;;
1677;SDS011;6034;46.864;15.216;2024-02-21T06:44:29;3.00;;;2.15;;
1677;SDS011;6034;46.864;15.216;2024-02-21T06:46:57;2.70;;;1.92;;
1677;SDS011;6034;46.864;15.216;2024-02-21T06:49:24;5.65;;;3.05;;
1677;SDS011;6034;46.864;15.216;2024-02-21T06:51:52;3.80;;;1.80;;
1677;SDS011;6034;46.864;15.216;2024-02-21T06:54:21;2.38;;;1.73;;
1677;SDS011;6034;46.864;15.216;2024-02-21T06:56:49;2.28;;;1.25;;
1677;SDS011;6034;46.864;15.216;2024-02-21T06:59:19;5.65;;;2.20;;
1677;SDS011;6034;46.864;15.216;2024-02-21T07:01:47;4.90;;;2.13;;
1677;SDS011;6034;46.864;15.216;2024-02-21T07:04:15;5.40;;;2.25;;
1677;SDS011;6034;46.864;15.216;2024-02-21T07:06:42;3.53;;;2.60;;
1677;SDS011;6034;46.864;15.216;2024-02-21T07:09:10;2.67;;;1.95;;
1677;SDS011;6034;46.864;15.216;2024-02-21T07:11:38;3.60;;;1.60;;
1677;SDS011;6034;46.864;15.216;2024-02-21T07:14:06;3.38;;;1.90;;
1677;SDS011;6034;46.864;15.216;2024-02-21T07:16:33;3.15;;;1.48;;
1677;SDS011;6034;46.864;15.216;2024-02-21T07:19:00;2.90;;;1.80;;
1677;SDS011;6034;46.864;15.216;2024-02-21T07:21:31;3.13;;;1.77;;
1677;SDS011;6034;46.864;15.216;2024-02-21T07:23:59;4.50;;;1.85;;
1677;SDS011;6034;46.864;15.216;2024-02-21T07:26:27;3.80;;;1.90;;
1677;SDS011;6034;46.864;15.216;2024-02-21T07:28:56;2.42;;;2.00;;
1677;SDS011;6034;46.864;15.216;2024-02-21T07:31:23;2.60;;;1.83;;
1677;SDS011;6034;46.864;15.216;2024-02-21T07:33:51;3.67;;;1.90;;
1677;SDS011;6034;46.864;15.216;2024-02-21T07:36:25;1.90;;;1.10;;
1677;SDS011;6034;46.864;15.216;2024-02-21T07:38:54;2.63;;;1.50;;
1677;SDS011;6034;46.864;15.216;2024-02-21T07:41:21;2.47;;;1.60;;
1677;SDS011;6034;46.864;15.216;2024-02-21T07:43:48;3.55;;;1.40;;
1677;SDS011;6034;46.864;15.216;2024-02-21T07:46:18;3.42;;;1.80;;
1677;SDS011;6034;46.864;15.216;2024-02-21T07:48:46;5.55;;;1.80;;
1677;SDS011;6034;46.864;15.216;2024-02-21T07:51:13;3.13;;;2.28;;
1677;SDS011;6034;46.864;15.216;2024-02-21T07:53:43;4.20;;;2.67;;
1677;SDS011;6034;46.864;15.216;2024-02-21T07:56:15;3.60;;;2.13;;
1677;SDS011;6034;46.864;15.216;2024-02-21T07:58:42;4.43;;;1.92;;
1677;SDS011;6034;46.864;15.216;2024-02-21T08:01:10;3.65;;;1.58;;
1677;SDS011;6034;46.864;15.216;2024-02-21T08:03:39;4.95;;;2.15;;
1677;SDS011;6034;46.864;15.216;2024-02-21T08:06:11;3.10;;;1.85;;
1677;SDS011;6034;46.864;15.216;2024-02-21T08:08:39;6.53;;;1.92;;
1677;SDS011;6034;46.864;15.216;2024-02-21T08:11:06;2.30;;;1.48;;
1677;SDS011;6034;46.864;15.216;2024-02-21T08:13:33;5.35;;;2.30;;
1677;SDS011;6034;46.864;15.216;2024-02-21T08:16:00;2.90;;;1.60;;
1677;SDS011;6034;46.864;15.216;2024-02-21T08:18:28;4.47;;;1.50;;
1677;SDS011;6034;46.864;15.216;2024-02-21T08:20:58;5.05;;;2.75;;
1677;SDS011;6034;46.864;15.216;2024-02-21T08:23:25;3.50;;;1.90;;
1677;SDS011;6034;46.864;15.216;2024-02-21T08:25:52;3.13;;;1.92;;
1677;SDS011;6034;46.864;15.216;2024-02-21T08:28:20;2.83;;;2.15;;
1677;SDS011;6034;46.864;15.216;2024-02-21T08:30:47;5.10;;;1.95;;
1677;SDS011;6034;46.864;15.216;2024-02-21T08:33:14;4.72;;;2.00;;
1677;SDS011;6034;46.864;15.216;2024-02-21T08:35:42;3.08;;;1.60;;
1677;SDS011;6034;46.864;15.216;2024-02-21T08:38:11;6.07;;;2.30;;
1677;SDS011;6034;46.864;15.216;2024-02-21T08:40:39;2.35;;;1.20;;
1677;SDS011;6034;46.864;15.216;2024-02-21T08:43:06;4.15;;;1.40;;
1677;SDS011;6034;46.864;15.216;2024-02-21T08:45:33;2.15;;;1.20;;
1677;SDS011;6034;46.864;15.216;2024-02-21T08:48:00;4.70;;;1.60;;
1677;SDS011;6034;46.864;15.216;2024-02-21T08:50:28;3.53;;;2.20;;
1677;SDS011;6034;46.864;15.216;2024-02-21T08:52:55;3.10;;;1.40;;
1677;SDS011;6034;46.864;15.216;2024-02-21T08:55:24;3.08;;;1.35;;
1677;SDS011;6034;46.864;15.216;2024-02-21T08:57:52;2.97;;;1.10;;
1677;SDS011;6034;46.864;15.216;2024-02-21T09:00:19;2.33;;;1.38;;
1677;SDS011;6034;46.864;15.216;2024-02-21T09:02:52;2.42;;;1.25;;
1677;SDS011;6034;46.864;15.216;2024-02-21T09:05:21;2.28;;;1.55;;
1677;SDS011;6034;46.864;15.216;2024-02-21T09:07:49;3.03;;;1.70;;
1677;SDS011;6034;46.864;15.216;2024-02-21T09:10:16;1.90;;;1.20;;
1677;SDS011;6034;46.864;15.216;2024-02-21T09:12:45;2.58;;;1.50;;
1677;SDS011;6034;46.864;15.216;2024-02-21T09:15:13;3.85;;;1.63;;
1677;SDS011;6034;46.864;15.216;2024-02-21T09:17:40;4.30;;;1.38;;
1677;SDS011;6034;46.864;15.216;2024-02-21T09:20:08;4.63;;;1.20;;
1677;SDS011;6034;46.864;15.216;2024-02-21T09:22:37;3.78;;;1.67;;
1677;SDS011;6034;46.864;15.216;2024-02-21T09:25:05;3.53;;;1.80;;
1677;SDS011;6034;46.864;15.216;2024-02-21T09:27:33;3.25;;;2.00;;
1677;SDS011;6034;46.864;15.216;2024-02-21T09:30:02;2.90;;;1.95;;
1677;SDS011;6034;46.864;15.216;2024-02-21T09:32:30;2.97;;;1.50;;
1677;SDS011;6034;46.864;15.216;2024-02-21T09:34:58;2.33;;;1.10;;
1677;SDS011;6034;46.864;15.216;2024-02-21T09:37:25;3.05;;;1.30;;
1677;SDS011;6034;46.864;15.216;2024-02-21T09:39:52;2.20;;;1.13;;
1677;SDS011;6034;46.864;15.216;2024-02-21T09:42:20;2.45;;;1.02;;
1677;SDS011;6034;46.864;15.216;2024-02-21T09:44:48;2.33;;;1.00;;
1677;SDS011;6034;46.864;15.216;2024-02-21T09:47:19;3.88;;;1.33;;
1677;SDS011;6034;46.864;15.216;2024-02-21T09:49:51;3.17;;;1.38;;
1677;SDS011;6034;46.864;15.216;2024-02-21T09:52:19;3.00;;;1.13;;
1677;SDS011;6034;46.864;15.216;2024-02-21T09:54:48;2.50;;;1.55;;
1677;SDS011;6034;46.864;15.216;2024-02-21T09:57:17;2.17;;;1.10;;
1677;SDS011;6034;46.864;15.216;2024-02-21T09:59:46;2.15;;;1.20;;
1677;SDS011;6034;46.864;15.216;2024-02-21T10:02:15;1.83;;;1.13;;
1677;SDS011;6034;46.864;15.216;2024-02-21T10:04:44;2.13;;;1.10;;
1677;SDS011;6034;46.864;15.216;2024-02-21T10:07:12;2.90;;;1.30;;
1677;SDS011;6034;46.864;15.216;2024-02-21T10:09:40;3.28;;;1.40;;
1677;SDS011;6034;46.864;15.216;2024-02-21T10:12:08;1.90;;;1.48;;
1677;SDS011;6034;46.864;15.216;2024-02-21T10:14:38;2.72;;;1.65;;
1677;SDS011;6034;46.864;15.216;2024-02-21T10:17:08;2.90;;;1.40;;
1677;SDS011;6034;46.864;15.216;2024-02-21T10:19:47;4.45;;;1.63;;
1677;SDS011;6034;46.864;15.216;2024-02-21T10:22:16;2.85;;;1.55;;
1677;SDS011;6034;46.864;15.216;2024-02-21T10:24:47;6.78;;;1.73;;
1677;SDS011;6034;46.864;15.216;2024-02-21T10:27:15;6.63;;;1.65;;
1677;SDS011;6034;46.864;15.216;2024-02-21T10:29:42;4.35;;;1.42;;
1677;SDS011;6034;46.864;15.216;2024-02-21T10:32:16;2.63;;;1.55;;
1677;SDS011;6034;46.864;15.216;2024-02-21T10:34:48;4.38;;;1.40;;
1677;SDS011;6034;46.864;15.216;2024-02-21T10:37:17;2.05;;;0.80;;
1677;SDS011;6034;46.864;15.216;2024-02-21T10:39:44;3.35;;;0.93;;
1677;SDS011;6034;46.864;15.216;2024-02-21T10:42:12;1.95;;;0.68;;
1677;SDS011;6034;46.864;15.216;2024-02-21T10:44:40;1.80;;;0.80;;
1677;SDS011;6034;46.864;15.216;2024-02-21T10:47:10;2.42;;;0.98;;
1677;SDS011;6034;46.864;15.216;2024-02-21T10:49:42;1.75;;;0.85;;
1677;SDS011;6034;46.864;15.216;2024-02-21T10:52:15;3.03;;;1.25;;
1677;SDS011;6034;46.864;15.216;2024-02-21T10:54:58;2.95;;;1.17;;
1677;SDS011;6034;46.864;15.216;2024-02-21T10:57:31;1.33;;;0.95;;
1677;SDS011;6034;46.864;15.216;2024-02-21T10:59:58;2.17;;;1.50;;
1677;SDS011;6034;46.864;15.216;2024-02-21T11:02:28;3.80;;;2.58;;
1677;SDS011;6034;46.864;15.216;2024-02-21T11:04:56;2.45;;;0.77;;
1677;SDS011;6034;46.864;15.216;2024-02-21T11:07:26;2.90;;;1.15;;
1677;SDS011;6034;46.864;15.216;2024-02-21T11:09:53;2.30;;;1.08;;
1677;SDS011;6034;46.864;15.216;2024-02-21T11:12:21;3.30;;;0.90;;
1677;SDS011;6034;46.864;15.216;2024-02-21T11:14:49;3.83;;;1.20;;
1677;SDS011;6034;46.864;15.216;2024-02-21T11:17:17;2.30;;;1.05;;
1677;SDS011;6034;46.864;15.216;2024-02-21T11:19:46;2.65;;;1.00;;
1677;SDS011;6034;46.864;15.216;2024-02-21T11:22:16;1.83;;;0.95;;
1677;SDS011;6034;46.864;15.216;2024-02-21T11:24:48;1.95;;;1.20;;
1677;SDS011;6034;46.864;15.216;2024-02-21T11:27:15;2.85;;;1.42;;
1677;SDS011;6034;46.864;15.216;2024-02-21T11:29:46;2.33;;;1.30;;
1677;SDS011;6034;46.864;15.216;2024-02-21T11:32:14;2.65;;;1.17;;
1677;SDS011;6034;46.864;15.216;2024-02-21T11:34:52;4.25;;;2.10;;
1677;SDS011;6034;46.864;15.216;2024-02-21T11:37:21;2.90;;;1.20;;
1677;SDS011;6034;46.864;15.216;2024-02-21T11:39:53;1.52;;;1.00;;
1677;SDS011;6034;46.864;15.216;2024-02-21T11:42:20;2.50;;;1.30;;
1677;SDS011;6034;46.864;15.216;2024-02-21T11:44:48;2.70;;;1.50;;
1677;SDS011;6034;46.864;15.216;2024-02-21T11:47:15;2.33;;;1.35;;
1677;SDS011;6034;46.864;15.216;2024-02-21T11:49:44;2.90;;;1.10;;
1677;SDS011;6034;46.864;15.216;2024-02-21T11:52:15;1.88;;;1.00;;
1677;SDS011;6034;46.864;15.216;2024-02-21T11:54:45;2.70;;;1.33;;
1677;SDS011;6034;46.864;15.216;2024-02-21T11:57:15;2.05;;;1.30;;
1677;SDS011;6034;46.864;15.216;2024-02-21T11:59:44;2.58;;;1.27;;
1677;SDS011;6034;46.864;15.216;2024-02-21T12:02:12;4.18;;;1.70;;
1677;SDS011;6034;46.864;15.216;2024-02-21T12:04:41;1.95;;;1.10;;
1677;SDS011;6034;46.864;15.216;2024-02-21T12:07:09;2.63;;;1.23;;
1677;SDS011;6034;46.864;15.216;2024-02-21T12:09:37;2.33;;;1.35;;
1677;SDS011;6034;46.864;15.216;2024-02-21T12:12:05;2.00;;;1.63;;
1677;SDS011;6034;46.864;15.216;2024-02-21T12:14:35;2.30;;;1.30;;
1677;SDS011;6034;46.864;15.216;2024-02-21T12:17:03;5.50;;;3.53;;
1677;SDS011;6034;46.864;15.216;2024-02-21T12:19:31;1.65;;;1.27;;
1677;SDS011;6034;46.864;15.216;2024-02-21T12:21:59;3.65;;;1.30;;
1677;SDS011;6034;46.864;15.216;2024-02-21T12:24:30;2.33;;;1.38;;
1677;SDS011;6034;46.864;15.216;2024-02-21T12:26:58;4.05;;;2.05;;
1677;SDS011;6034;46.864;15.216;2024-02-21T12:29:28;2.33;;;1.55;;
1677;SDS011;6034;46.864;15.216;2024-02-21T12:31:57;3.08;;;1.02;;
1677;SDS011;6034;46.864;15.216;2024-02-21T12:34:24;2.40;;;1.10;;
1677;SDS011;6034;46.864;15.216;2024-02-21T12:36:52;2.10;;;1.00;;
1677;SDS011;6034;46.864;15.216;2024-02-21T12:39:19;2.50;;;1.33;;
1677;SDS011;6034;46.864;15.216;2024-02-21T12:41:47;4.35;;;1.63;;
1677;SDS011;6034;46.864;15.216;2024-02-21T12:44:14;2.80;;;1.10;;
1677;SDS011;6034;46.864;15.216;2024-02-21T12:46:43;2.40;;;1.30;;
1677;SDS011;6034;46.864;15.216;2024-02-21T12:49:12;1.63;;;1.10;;
1677;SDS011;6034;46.864;15.216;2024-02-21T12:51:41;1.65;;;1.30;;
1677;SDS011;6034;46.864;15.216;2024-02-21T12:54:08;1.35;;;1.05;;
1677;SDS011;6034;46.864;15.216;2024-02-21T12:56:36;2.08;;;1.10;;
1677;SDS011;6034;46.864;15.216;2024-02-21T12:59:04;1.70;;;1.10;;
1677;SDS011;6034;46.864;15.216;2024-02-21T13:01:34;2.53;;;1.20;;
1677;SDS011;6034;46.864;15.216;2024-02-21T13:04:01;2.10;;;1.20;;
1677;SDS011;6034;46.864;15.216;2024-02-21T13:06:30;2.22;;;1.02;;
1677;SDS011;6034;46.864;15.216;2024-02-21T13:08:58;1.88;;;0.80;;
1677;SDS011;6034;46.864;15.216;2024-02-21T13:11:28;2.00;;;1.23;;
1677;SDS011;6034;46.864;15.216;2024-02-21T13:13:56;2.80;;;0.90;;
1677;SDS011;6034;46.864;15.216;2024-02-21T13:16:24;2.33;;;1.10;;
1677;SDS011;6034;46.864;15.216;2024-02-21T13:18:52;2.80;;;1.30;;
1677;SDS011;6034;46.864;15.216;2024-02-21T13:21:20;4.05;;;1.10;;
1677;SDS011;6034;46.864;15.216;2024-02-21T13:23:48;1.52;;;1.10;;
1677;SDS011;6034;46.864;15.216;2024-02-21T13:26:16;1.98;;;1.08;;
1677;SDS011;6034;46.864;15.216;2024-02-21T13:28:45;4.13;;;1.00;;
1677;SDS011;6034;46.864;15.216;2024-02-21T13:31:13;2.13;;;1.30;;
1677;SDS011;6034;46.864;15.216;2024-02-21T13:33:41;2.80;;;1.77;;
1677;SDS011;6034;46.864;15.216;2024-02-21T13:36:09;2.35;;;1.10;;
1677;SDS011;6034;46.864;15.216;2024-02-21T13:38:37;2.25;;;1.10;;
1677;SDS011;6034;46.864;15.216;2024-02-21T13:41:06;1.40;;;0.90;;
1677;SDS011;6034;46.864;15.216;2024-02-21T13:43:33;1.40;;;0.90;;
1677;SDS011;6034;46.864;15.216;2024-02-21T13:46:01;1.90;;;1.00;;
1677;SDS011;6034;46.864;15.216;2024-02-21T13:48:30;3.88;;;1.30;;
1677;SDS011;6034;46.864;15.216;2024-02-21T13:50:58;1.95;;;1.23;;
1677;SDS011;6034;46.864;15.216;2024-02-21T13:53:27;2.72;;;1.15;;
1677;SDS011;6034;46.864;15.216;2024-02-21T13:55:55;2.28;;;1.30;;
1677;SDS011;6034;46.864;15.216;2024-02-21T13:58:24;2.05;;;1.17;;
1677;SDS011;6034;46.864;15.216;2024-02-21T14:00:51;2.63;;;1.50;;
1677;SDS011;6034;46.864;15.216;2024-02-21T14:03:18;3.75;;;1.73;;
1677;SDS011;6034;46.864;15.216;2024-02-21T14:05:46;3.08;;;1.33;;
1677;SDS011;6034;46.864;15.216;2024-02-21T14:08:14;3.95;;;1.65;;
1677;SDS011;6034;46.864;15.216;2024-02-21T14:10:41;2.35;;;1.27;;
1677;SDS011;6034;46.864;15.216;2024-02-21T14:13:09;1.67;;;1.30;;
1677;SDS011;6034;46.864;15.216;2024-02-21T14:15:39;1.73;;;0.98;;
1677;SDS011;6034;46.864;15.216;2024-02-21T14:18:09;5.30;;;1.80;;
1677;SDS011;6034;46.864;15.216;2024-02-21T14:20:38;1.58;;;1.02;;
1677;SDS011;6034;46.864;15.216;2024-02-21T14:23:06;4.57;;;1.88;;
1677;SDS011;6034;46.864;15.216;2024-02-21T14:25:33;2.75;;;1.55;;
1677;SDS011;6034;46.864;15.216;2024-02-21T14:28:00;1.55;;;1.00;;
1677;SDS011;6034;46.864;15.216;2024-02-21T14:30:27;2.25;;;1.02;;
1677;SDS011;6034;46.864;15.216;2024-02-21T14:32:56;1.65;;;1.15;;
1677;SDS011;6034;46.864;15.216;2024-02-21T14:35:24;4.40;;;1.27;;
1677;SDS011;6034;46.864;15.216;2024-02-21T14:37:51;3.90;;;1.45;;
1677;SDS011;6034;46.864;15.216;2024-02-21T14:40:20;1.75;;;0.82;;
1677;SDS011;6034;46.864;15.216;2024-02-21T14:42:48;1.85;;;1.20;;
1677;SDS011;6034;46.864;15.216;2024-02-21T14:45:15;1.90;;;1.63;;
1677;SDS011;6034;46.864;15.216;2024-02-21T14:47:43;1.80;;;1.35;;
1677;SDS011;6034;46.864;15.216;2024-02-21T14:50:12;2.95;;;1.35;;
1677;SDS011;6034;46.864;15.216;2024-02-21T14:52:39;2.22;;;1.23;;
1677;SDS011;6034;46.864;15.216;2024-02-21T14:55:06;1.75;;;1.10;;
1677;SDS011;6034;46.864;15.216;2024-02-21T14:57:34;2.42;;;1.60;;
1677;SDS011;6034;46.864;15.216;2024-02-21T15:00:05;1.80;;;1.00;;
1677;SDS011;6034;46.864;15.216;2024-02-21T15:02:34;3.30;;;1.33;;
1677;SDS011;6034;46.864;15.216;2024-02-21T15:05:01;3.90;;;1.15;;
1677;SDS011;6034;46.864;15.216;2024-02-21T15:07:32;1.95;;;1.02;;
1677;SDS011;6034;46.864;15.216;2024-02-21T15:09:59;2.20;;;1.23;;
1677;SDS011;6034;46.864;15.216;2024-02-21T15:12:28;2.22;;;1.30;;
1677;SDS011;6034;46.864;15.216;2024-02-21T15:14:56;2.10;;;1.00;;
1677;SDS011;6034;46.864;15.216;2024-02-21T15:17:24;2.10;;;1.15;;
1677;SDS011;6034;46.864;15.216;2024-02-21T15:19:51;1.90;;;1.17;;
1677;SDS011;6034;46.864;15.216;2024-02-21T15:22:20;2.03;;;1.40;;
1677;SDS011;6034;46.864;15.216;2024-02-21T15:24:49;3.08;;;1.48;;
1677;SDS011;6034;46.864;15.216;2024-02-21T15:27:18;2.05;;;1.20;;
1677;SDS011;6034;46.864;15.216;2024-02-21T15:29:45;2.38;;;1.15;;
1677;SDS011;6034;46.864;15.216;2024-02-21T15:32:12;3.67;;;2.08;;
1677;SDS011;6034;46.864;15.216;2024-02-21T15:34:40;3.05;;;1.35;;
1677;SDS011;6034;46.864;15.216;2024-02-21T15:37:07;2.00;;;1.30;;
1677;SDS011;6034;46.864;15.216;2024-02-21T15:39:35;5.35;;;2.25;;
1677;SDS011;6034;46.864;15.216;2024-02-21T15:42:04;4.60;;;2.28;;
1677;SDS011;6034;46.864;15.216;2024-02-21T15:44:32;5.43;;;2.38;;
1677;SDS011;6034;46.864;15.216;2024-02-21T15:46:59;2.70;;;1.40;;
1677;SDS011;6034;46.864;15.216;2024-02-21T15:49:27;2.00;;;1.10;;
1677;SDS011;6034;46.864;15.216;2024-02-21T15:51:54;2.00;;;1.40;;
1677;SDS011;6034;46.864;15.216;2024-02-21T15:54:22;1.45;;;0.93;;
1677;SDS011;6034;46.864;15.216;2024-02-21T15:56:52;1.90;;;1.50;;
1677;SDS011;6034;46.864;15.216;2024-02-21T15:59:23;1.90;;;1.13;;
1677;SDS011;6034;46.864;15.216;2024-02-21T16:01:51;1.70;;;0.90;;
1677;SDS011;6034;46.864;15.216;2024-02-21T16:04:18;1.48;;;1.00;;
1677;SDS011;6034;46.864;15.216;2024-02-21T16:06:45;2.20;;;1.17;;
1677;SDS011;6034;46.864;15.216;2024-02-21T16:09:16;1.92;;;0.93;;
1677;SDS011;6034;46.864;15.216;2024-02-21T16:11:44;2.20;;;1.20;;
1677;SDS011;6034;46.864;15.216;2024-02-21T16:14:11;1.85;;;1.00;;
1677;SDS011;6034;46.864;15.216;2024-02-21T16:16:40;3.70;;;1.10;;
1677;SDS011;6034;46.864;15.216;2024-02-21T16:19:08;1.52;;;1.02;;
1677;SDS011;6034;46.864;15.216;2024-02-21T16:21:36;2.35;;;1.33;;
1677;SDS011;6034;46.864;15.216;2024-02-21T16:24:04;2.00;;;1.00;;
1677;SDS011;6034;46.864;15.216;2024-02-21T16:26:33;2.15;;;1.20;;
1677;SDS011;6034;46.864;15.216;2024-02-21T16:29:01;1.60;;;0.80;;
1677;SDS011;6034;46.864;15.216;2024-02-21T16:31:29;1.73;;;1.02;;
1677;SDS011;6034;46.864;15.216;2024-02-21T16:33:58;1.90;;;0.85;;
1677;SDS011;6034;46.864;15.216;2024-02-21T16:36:25;1.88;;;1.10;;
1677;SDS011;6034;46.864;15.216;2024-02-21T16:38:52;2.88;;;1.15;;
1677;SDS011;6034;46.864;15.216;2024-02-21T16:41:20;2.90;;;2.58;;
1677;SDS011;6034;46.864;15.216;2024-02-21T16:43:48;12.57;;;8.85;;
1677;SDS011;6034;46.864;15.216;2024-02-21T16:46:16;20.90;;;13.07;;
1677;SDS011;6034;46.864;15.216;2024-02-21T16:48:44;11.65;;;8.80;;
1677;SDS011;6034;46.864;15.216;2024-02-21T16:51:13;20.20;;;16.88;;
1677;SDS011;6034;46.864;15.216;2024-02-21T16:53:41;26.08;;;20.70;;
1677;SDS011;6034;46.864;15.216;2024-02-21T16:56:09;5.60;;;4.15;;
1677;SDS011;6034;46.864;15.216;2024-02-21T16:58:36;5.13;;;3.90;;
1677;SDS011;6034;46.864;15.216;2024-02-21T17:01:04;8.18;;;6.25;;
1677;SDS011;6034;46.864;15.216;2024-02-21T17:03:32;5.05;;;3.80;;
1677;SDS011;6034;46.864;15.216;2024-02-21T17:05:59;3.35;;;2.40;;
1677;SDS011;6034;46.864;15.216;2024-02-21T17:08:28;4.18;;;2.13;;
1677;SDS011;6034;46.864;15.216;2024-02-21T17:10:57;2.05;;;1.40;;
1677;SDS011;6034;46.864;15.216;2024-02-21T17:13:24;1.60;;;1.20;;
1677;SDS011;6034;46.864;15.216;2024-02-21T17:15:52;1.67;;;1.13;;
1677;SDS011;6034;46.864;15.216;2024-02-21T17:18:19;2.25;;;1.50;;
1677;SDS011;6034;46.864;15.216;2024-02-21T17:20:47;2.13;;;1.30;;
1677;SDS011;6034;46.864;15.216;2024-02-21T17:23:15;2.42;;;1.33;;
1677;SDS011;6034;46.864;15.216;2024-02-21T17:25:43;3.33;;;1.90;;
1677;SDS011;6034;46.864;15.216;2024-02-21T17:28:11;1.98;;;1.20;;
1677;SDS011;6034;46.864;15.216;2024-02-21T17:30:38;3.17;;;1.27;;
1677;SDS011;6034;46.864;15.216;2024-02-21T17:33:06;2.65;;;1.17;;
1677;SDS011;6034;46.864;15.216;2024-02-21T17:35:33;2.30;;;1.30;;
1677;SDS011;6034;46.864;15.216;2024-02-21T17:38:01;2.92;;;1.25;;
1677;SDS011;6034;46.864;15.216;2024-02-21T17:40:30;3.38;;;1.60;;
1677;SDS011;6034;46.864;15.216;2024-02-21T17:43:00;3.20;;;1.45;;
1677;SDS011;6034;46.864;15.216;2024-02-21T17:45:28;2.20;;;1.30;;
1677;SDS011;6034;46.864;15.216;2024-02-21T17:47:56;1.63;;;0.95;;
1677;SDS011;6034;46.864;15.216;2024-02-21T17:50:23;2.42;;;1.58;;
1677;SDS011;6034;46.864;15.216;2024-02-21T17:52:51;44.35;;;34.85;;
1677;SDS011;6034;46.864;15.216;2024-02-21T17:55:18;47.97;;;35.75;;
1677;SDS011;6034;46.864;15.216;2024-02-21T17:57:46;13.15;;;9.65;;
1677;SDS011;6034;46.864;15.216;2024-02-21T18:00:16;11.63;;;7.07;;
1677;SDS011;6034;46.864;15.216;2024-02-21T18:02:45;5.07;;;3.80;;
1677;SDS011;6034;46.864;15.216;2024-02-21T18:05:13;3.55;;;2.20;;
1677;SDS011;6034;46.864;15.216;2024-02-21T18:07:41;2.38;;;1.50;;
1677;SDS011;6034;46.864;15.216;2024-02-21T18:10:08;1.85;;;1.50;;
1677;SDS011;6034;46.864;15.216;2024-02-21T18:12:36;2.47;;;1.40;;
1677;SDS011;6034;46.864;15.216;2024-02-21T18:15:05;2.60;;;1.30;;
1677;SDS011;6034;46.864;15.216;2024-02-21T18:17:37;2.15;;;1.40;;
1677;SDS011;6034;46.864;15.216;2024-02-21T18:20:06;2.00;;;1.20;;
1677;SDS011;6034;46.864;15.216;2024-02-21T18:22:34;3.28;;;1.58;;
1677;SDS011;6034;46.864;15.216;2024-02-21T18:25:02;3.25;;;1.60;;
1677;SDS011;6034;46.864;15.216;2024-02-21T18:27:33;3.80;;;3.20;;
1677;SDS011;6034;46.864;15.216;2024-02-21T18:30:01;6.45;;;3.85;;
1677;SDS011;6034;46.864;15.216;2024-02-21T18:32:28;2.63;;;1.77;;
1677;SDS011;6034;46.864;15.216;2024-02-21T18:34:57;2.50;;;1.17;;
1677;SDS011;6034;46.864;15.216;2024-02-21T18:37:25;2.80;;;1.38;;
1677;SDS011;6034;46.864;15.216;2024-02-21T18:39:54;2.08;;;1.40;;
1677;SDS011;6034;46.864;15.216;2024-02-21T18:42:21;4.75;;;3.33;;
1677;SDS011;6034;46.864;15.216;2024-02-21T18:44:49;6.05;;;5.53;;
1677;SDS011;6034;46.864;15.216;2024-02-21T18:47:19;2.65;;;2.38;;
1677;SDS011;6034;46.864;15.216;2024-02-21T18:49:48;3.05;;;1.70;;
1677;SDS011;6034;46.864;15.216;2024-02-21T18:52:18;2.03;;;1.50;;
1677;SDS011;6034;46.864;15.216;2024-02-21T18:54:46;3.00;;;2.00;;
1677;SDS011;6034;46.864;15.216;2024-02-21T18:57:14;2.67;;;1.67;;
1677;SDS011;6034;46.864;15.216;2024-02-21T18:59:43;3.33;;;1.88;;
1677;SDS011;6034;46.864;15.216;2024-02-21T19:02:12;2.22;;;1.60;;
1677;SDS011;6034;46.864;15.216;2024-02-21T19:04:41;2.60;;;1.38;;
1677;SDS011;6034;46.864;15.216;2024-02-21T19:07:08;2.17;;;1.50;;
1677;SDS011;6034;46.864;15.216;2024-02-21T19:09:38;2.65;;;1.35;;
1677;SDS011;6034;46.864;15.216;2024-02-21T19:12:07;2.47;;;1.65;;
1677;SDS011;6034;46.864;15.216;2024-02-21T19:14:36;2.45;;;1.63;;
1677;SDS011;6034;46.864;15.216;2024-02-21T19:17:03;2.15;;;1.30;;
1677;SDS011;6034;46.864;15.216;2024-02-21T19:19:33;1.95;;;1.75;;
1677;SDS011;6034;46.864;15.216;2024-02-21T19:22:01;1.92;;;1.35;;
1677;SDS011;6034;46.864;15.216;2024-02-21T19:24:30;2.25;;;1.58;;
1677;SDS011;6034;46.864;15.216;2024-02-21T19:27:00;2.20;;;1.40;;
1677;SDS011;6034;46.864;15.216;2024-02-21T19:29:28;3.42;;;1.27;;
1677;SDS011;6034;46.864;15.216;2024-02-21T19:31:55;3.78;;;2.15;;
1677;SDS011;6034;46.864;15.216;2024-02-21T19:34:24;3.40;;;1.85;;
1677;SDS011;6034;46.864;15.216;2024-02-21T19:36:53;2.15;;;1.58;;
1677;SDS011;6034;46.864;15.216;2024-02-21T19:39:21;2.83;;;1.70;;
1677;SDS011;6034;46.864;15.216;2024-02-21T19:41:51;2.60;;;1.35;;
1677;SDS011;6034;46.864;15.216;2024-02-21T19:44:20;2.00;;;1.42;;
1677;SDS011;6034;46.864;15.216;2024-02-21T19:46:48;3.53;;;1.50;;
1677;SDS011;6034;46.864;15.216;2024-02-21T19:49:16;2.00;;;1.50;;
1677;SDS011;6034;46.864;15.216;2024-02-21T19:51:45;2.40;;;1.65;;
1677;SDS011;6034;46.864;15.216;2024-02-21T19:54:13;2.30;;;1.30;;
1677;SDS011;6034;46.864;15.216;2024-02-21T19:56:43;3.28;;;1.25;;
1677;SDS011;6034;46.864;15.216;2024-02-21T19:59:11;1.80;;;1.33;;
1677;SDS011;6034;46.864;15.216;2024-02-21T20:01:40;2.00;;;1.30;;
1677;SDS011;6034;46.864;15.216;2024-02-21T20:04:09;2.25;;;1.23;;
1677;SDS011;6034;46.864;15.216;2024-02-21T20:06:38;1.90;;;1.33;;
1677;SDS011;6034;46.864;15.216;2024-02-21T20:09:06;2.35;;;1.50;;
1677;SDS011;6034;46.864;15.216;2024-02-21T20:11:34;2.53;;;1.13;;
1677;SDS011;6034;46.864;15.216;2024-02-21T20:14:05;2.05;;;1.40;;
1677;SDS011;6034;46.864;15.216;2024-02-21T20:16:35;1.95;;;1.40;;
1677;SDS011;6034;46.864;15.216;2024-02-21T20:19:04;2.42;;;1.77;;
1677;SDS011;6034;46.864;15.216;2024-02-21T20:21:35;2.30;;;1.60;;
1677;SDS011;6034;46.864;15.216;2024-02-21T20:24:05;2.30;;;1.50;;
1677;SDS011;6034;46.864;15.216;2024-02-21T20:26:34;2.13;;;1.15;;
1677;SDS011;6034;46.864;15.216;2024-02-21T20:29:01;1.73;;;1.45;;
1677;SDS011;6034;46.864;15.216;2024-02-21T20:31:29;2.35;;;1.30;;
1677;SDS011;6034;46.864;15.216;2024-02-21T20:33:56;4.05;;;1.52;;
1677;SDS011;6034;46.864;15.216;2024-02-21T20:36:25;3.28;;;1.42;;
1677;SDS011;6034;46.864;15.216;2024-02-21T20:38:53;3.25;;;1.80;;
1677;SDS011;6034;46.864;15.216;2024-02-21T20:41:20;2.75;;;1.55;;
1677;SDS011;6034;46.864;15.216;2024-02-21T20:43:48;2.45;;;1.45;;
1677;SDS011;6034;46.864;15.216;2024-02-21T20:46:15;2.70;;;1.40;;
1677;SDS011;6034;46.864;15.216;2024-02-21T20:48:42;1.80;;;1.33;;
1677;SDS011;6034;46.864;15.216;2024-02-21T20:51:10;3.10;;;2.30;;
1677;SDS011;6034;46.864;15.216;2024-02-21T20:53:39;3.45;;;1.45;;
1677;SDS011;6034;46.864;15.216;2024-02-21T20:56:06;2.08;;;1.55;;
1677;SDS011;6034;46.864;15.216;2024-02-21T20:58:35;2.65;;;1.23;;
1677;SDS011;6034;46.864;15.216;2024-02-21T21:01:03;3.25;;;1.40;;
1677;SDS011;6034;46.864;15.216;2024-02-21T21:03:31;3.03;;;1.42;;
1677;SDS011;6034;46.864;15.216;2024-02-21T21:05:59;3.75;;;1.65;;
1677;SDS011;6034;46.864;15.216;2024-02-21T21:08:27;4.88;;;2.40;;